sensor_id;sensor_type;location;lat;lon;timestamp;P1;durP1;ratioP1;P2;durP2;ratioP2
16063;SDS011;8136;53.172;8.256;2023-06-14T00:00:33;1.30;;;1.00;;
16063;SDS011;8136;53.172;8.256;2023-06-14T00:03:00;4.73;;;1.23;;
16063;SDS011;8136;53.172;8.256;2023-06-14T00:05:28;4.07;;;1.10;;
16063;SDS011;8136;53.172;8.256;2023-06-14T00:07:58;7.13;;;1.50;;
16063;SDS011;8136;53.172;8.256;2023-06-14T00:10:25;8.27;;;1.40;;
16063;SDS011;8136;53.172;8.256;2023-06-14T00:12:57;2.27;;;1.10;;
16063;SDS011;8136;53.172;8.256;2023-06-14T00:15:24;1.70;;;1.37;;
16063;SDS011;8136;53.172;8.256;2023-06-14T00:17:51;4.23;;;1.13;;
16063;SDS011;8136;53.172;8.256;2023-06-14T00:20:19;1.60;;;1.43;;
16063;SDS011;8136;53.172;8.256;2023-06-14T00:22:46;1.70;;;1.20;;
16063;SDS011;8136;53.172;8.256;2023-06-14T00:25:13;1.93;;;1.27;;
16063;SDS011;8136;53.172;8.256;2023-06-14T00:27:40;2.10;;;1.40;;
16063;SDS011;8136;53.172;8.256;2023-06-14T00:30:08;2.97;;;1.27;;
16063;SDS011;8136;53.172;8.256;2023-06-14T00:32:36;2.23;;;1.10;;
16063;SDS011;8136;53.172;8.256;2023-06-14T00:35:03;2.33;;;1.30;;
16063;SDS011;8136;53.172;8.256;2023-06-14T00:37:30;4.63;;;1.50;;
16063;SDS011;8136;53.172;8.256;2023-06-14T00:39:57;2.90;;;1.50;;
16063;SDS011;8136;53.172;8.256;2023-06-14T00:42:24;2.73;;;1.20;;
16063;SDS011;8136;53.172;8.256;2023-06-14T00:44:51;1.53;;;1.30;;
16063;SDS011;8136;53.172;8.256;2023-06-14T00:47:19;2.03;;;1.40;;
16063;SDS011;8136;53.172;8.256;2023-06-14T00:49:47;1.73;;;1.27;;
16063;SDS011;8136;53.172;8.256;2023-06-14T00:52:14;2.67;;;1.00;;
16063;SDS011;8136;53.172;8.256;2023-06-14T00:54:42;1.20;;;1.10;;
16063;SDS011;8136;53.172;8.256;2023-06-14T00:57:09;1.80;;;1.33;;
16063;SDS011;8136;53.172;8.256;2023-06-14T00:59:38;2.20;;;1.50;;
16063;SDS011;8136;53.172;8.256;2023-06-14T01:02:08;1.60;;;1.33;;
16063;SDS011;8136;53.172;8.256;2023-06-14T01:04:37;1.97;;;1.13;;
16063;SDS011;8136;53.172;8.256;2023-06-14T01:07:07;2.07;;;1.50;;
16063;SDS011;8136;53.172;8.256;2023-06-14T01:09:45;4.67;;;1.53;;
16063;SDS011;8136;53.172;8.256;2023-06-14T01:12:20;2.53;;;1.30;;
16063;SDS011;8136;53.172;8.256;2023-06-14T01:14:50;1.47;;;1.10;;
16063;SDS011;8136;53.172;8.256;2023-06-14T01:17:20;3.10;;;1.50;;
16063;SDS011;8136;53.172;8.256;2023-06-14T01:19:50;5.13;;;1.27;;
16063;SDS011;8136;53.172;8.256;2023-06-14T01:22:22;1.77;;;1.60;;
16063;SDS011;8136;53.172;8.256;2023-06-14T01:24:52;3.77;;;1.70;;
16063;SDS011;8136;53.172;8.256;2023-06-14T01:27:20;4.10;;;1.50;;
16063;SDS011;8136;53.172;8.256;2023-06-14T01:29:49;3.10;;;1.70;;
16063;SDS011;8136;53.172;8.256;2023-06-14T01:32:21;1.27;;;1.10;;
16063;SDS011;8136;53.172;8.256;2023-06-14T01:34:49;1.53;;;1.40;;
16063;SDS011;8136;53.172;8.256;2023-06-14T01:37:15;3.40;;;1.60;;
16063;SDS011;8136;53.172;8.256;2023-06-14T01:39:43;2.23;;;1.60;;
16063;SDS011;8136;53.172;8.256;2023-06-14T01:42:13;3.07;;;1.53;;
16063;SDS011;8136;53.172;8.256;2023-06-14T01:44:40;1.83;;;1.57;;
16063;SDS011;8136;53.172;8.256;2023-06-14T01:47:09;3.20;;;1.53;;
16063;SDS011;8136;53.172;8.256;2023-06-14T01:49:37;3.97;;;1.97;;
16063;SDS011;8136;53.172;8.256;2023-06-14T01:52:05;2.73;;;1.80;;
16063;SDS011;8136;53.172;8.256;2023-06-14T01:54:34;1.67;;;1.50;;
16063;SDS011;8136;53.172;8.256;2023-06-14T01:57:03;3.83;;;1.93;;
16063;SDS011;8136;53.172;8.256;2023-06-14T01:59:33;2.90;;;1.50;;
16063;SDS011;8136;53.172;8.256;2023-06-14T02:02:00;3.17;;;1.80;;
16063;SDS011;8136;53.172;8.256;2023-06-14T02:04:27;2.43;;;1.67;;
16063;SDS011;8136;53.172;8.256;2023-06-14T02:06:54;4.73;;;1.90;;
16063;SDS011;8136;53.172;8.256;2023-06-14T02:09:20;3.67;;;1.80;;
16063;SDS011;8136;53.172;8.256;2023-06-14T02:11:48;4.90;;;1.50;;
16063;SDS011;8136;53.172;8.256;2023-06-14T02:14:15;2.40;;;1.60;;
16063;SDS011;8136;53.172;8.256;2023-06-14T02:16:43;1.80;;;1.50;;
16063;SDS011;8136;53.172;8.256;2023-06-14T02:19:14;4.50;;;2.13;;
16063;SDS011;8136;53.172;8.256;2023-06-14T02:21:41;3.40;;;1.73;;
16063;SDS011;8136;53.172;8.256;2023-06-14T02:24:08;5.20;;;1.70;;
16063;SDS011;8136;53.172;8.256;2023-06-14T02:26:35;3.83;;;1.60;;
16063;SDS011;8136;53.172;8.256;2023-06-14T02:32:26;2.30;;;1.67;;
16063;SDS011;8136;53.172;8.256;2023-06-14T02:34:53;3.30;;;2.00;;
16063;SDS011;8136;53.172;8.256;2023-06-14T02:37:19;2.37;;;1.70;;
16063;SDS011;8136;53.172;8.256;2023-06-14T02:39:46;1.73;;;1.50;;
16063;SDS011;8136;53.172;8.256;2023-06-14T02:42:13;5.97;;;1.87;;
16063;SDS011;8136;53.172;8.256;2023-06-14T02:44:40;3.20;;;1.90;;
16063;SDS011;8136;53.172;8.256;2023-06-14T02:47:08;2.87;;;1.80;;
16063;SDS011;8136;53.172;8.256;2023-06-14T02:49:36;5.87;;;2.20;;
16063;SDS011;8136;53.172;8.256;2023-06-14T02:52:03;3.77;;;1.80;;
16063;SDS011;8136;53.172;8.256;2023-06-14T02:54:31;2.03;;;1.70;;
16063;SDS011;8136;53.172;8.256;2023-06-14T02:56:58;3.70;;;2.23;;
16063;SDS011;8136;53.172;8.256;2023-06-14T02:59:24;5.30;;;1.93;;
16063;SDS011;8136;53.172;8.256;2023-06-14T03:01:51;5.10;;;2.10;;
16063;SDS011;8136;53.172;8.256;2023-06-14T03:04:18;7.10;;;2.30;;
16063;SDS011;8136;53.172;8.256;2023-06-14T03:06:46;4.70;;;2.13;;
16063;SDS011;8136;53.172;8.256;2023-06-14T03:09:15;3.20;;;2.10;;
16063;SDS011;8136;53.172;8.256;2023-06-14T03:11:42;4.70;;;1.87;;
16063;SDS011;8136;53.172;8.256;2023-06-14T03:14:08;2.67;;;2.00;;
16063;SDS011;8136;53.172;8.256;2023-06-14T03:16:36;2.27;;;2.07;;
16063;SDS011;8136;53.172;8.256;2023-06-14T03:19:03;3.27;;;2.20;;
16063;SDS011;8136;53.172;8.256;2023-06-14T03:21:30;3.90;;;2.03;;
16063;SDS011;8136;53.172;8.256;2023-06-14T03:23:58;3.90;;;2.20;;
16063;SDS011;8136;53.172;8.256;2023-06-14T03:26:25;6.27;;;1.80;;
16063;SDS011;8136;53.172;8.256;2023-06-14T03:28:52;5.63;;;2.20;;
16063;SDS011;8136;53.172;8.256;2023-06-14T03:31:19;3.00;;;2.20;;
16063;SDS011;8136;53.172;8.256;2023-06-14T03:33:46;2.30;;;1.50;;
16063;SDS011;8136;53.172;8.256;2023-06-14T03:39:36;4.63;;;2.07;;
16063;SDS011;8136;53.172;8.256;2023-06-14T03:42:03;2.13;;;1.80;;
16063;SDS011;8136;53.172;8.256;2023-06-14T03:44:30;3.33;;;1.97;;
16063;SDS011;8136;53.172;8.256;2023-06-14T03:46:57;2.47;;;2.00;;
16063;SDS011;8136;53.172;8.256;2023-06-14T03:49:24;5.40;;;2.10;;
16063;SDS011;8136;53.172;8.256;2023-06-14T03:51:51;2.90;;;1.70;;
16063;SDS011;8136;53.172;8.256;2023-06-14T03:54:18;3.00;;;2.37;;
16063;SDS011;8136;53.172;8.256;2023-06-14T03:56:46;4.57;;;2.27;;
16063;SDS011;8136;53.172;8.256;2023-06-14T03:59:13;3.33;;;2.17;;
16063;SDS011;8136;53.172;8.256;2023-06-14T04:01:39;4.30;;;2.57;;
16063;SDS011;8136;53.172;8.256;2023-06-14T04:04:11;3.23;;;1.93;;
16063;SDS011;8136;53.172;8.256;2023-06-14T04:06:38;4.37;;;2.00;;
16063;SDS011;8136;53.172;8.256;2023-06-14T04:09:06;3.77;;;2.00;;
16063;SDS011;8136;53.172;8.256;2023-06-14T04:11:33;5.50;;;2.50;;
16063;SDS011;8136;53.172;8.256;2023-06-14T04:14:01;9.63;;;2.20;;
16063;SDS011;8136;53.172;8.256;2023-06-14T04:16:28;3.97;;;2.30;;
16063;SDS011;8136;53.172;8.256;2023-06-14T04:18:55;7.53;;;2.53;;
16063;SDS011;8136;53.172;8.256;2023-06-14T04:21:23;3.13;;;2.27;;
16063;SDS011;8136;53.172;8.256;2023-06-14T04:23:50;4.07;;;2.43;;
16063;SDS011;8136;53.172;8.256;2023-06-14T04:26:19;3.73;;;1.73;;
16063;SDS011;8136;53.172;8.256;2023-06-14T04:28:48;3.67;;;2.03;;
16063;SDS011;8136;53.172;8.256;2023-06-14T04:31:17;2.97;;;2.30;;
16063;SDS011;8136;53.172;8.256;2023-06-14T04:33:44;2.50;;;2.07;;
16063;SDS011;8136;53.172;8.256;2023-06-14T04:36:11;2.53;;;2.10;;
16063;SDS011;8136;53.172;8.256;2023-06-14T04:38:38;2.30;;;2.07;;
16063;SDS011;8136;53.172;8.256;2023-06-14T04:41:06;2.37;;;2.03;;
16063;SDS011;8136;53.172;8.256;2023-06-14T04:43:36;5.23;;;2.00;;
16063;SDS011;8136;53.172;8.256;2023-06-14T04:46:03;3.40;;;2.30;;
16063;SDS011;8136;53.172;8.256;2023-06-14T04:48:35;2.17;;;1.90;;
16063;SDS011;8136;53.172;8.256;2023-06-14T04:51:04;4.27;;;2.40;;
16063;SDS011;8136;53.172;8.256;2023-06-14T04:53:31;6.50;;;2.10;;
16063;SDS011;8136;53.172;8.256;2023-06-14T04:55:59;5.67;;;2.67;;
16063;SDS011;8136;53.172;8.256;2023-06-14T04:58:26;3.80;;;2.10;;
16063;SDS011;8136;53.172;8.256;2023-06-14T05:00:53;4.97;;;2.10;;
16063;SDS011;8136;53.172;8.256;2023-06-14T05:03:21;3.50;;;2.10;;
16063;SDS011;8136;53.172;8.256;2023-06-14T05:05:50;8.33;;;2.60;;
16063;SDS011;8136;53.172;8.256;2023-06-14T05:08:18;4.03;;;2.37;;
16063;SDS011;8136;53.172;8.256;2023-06-14T05:10:45;5.90;;;2.20;;
16063;SDS011;8136;53.172;8.256;2023-06-14T05:13:12;4.67;;;2.40;;
16063;SDS011;8136;53.172;8.256;2023-06-14T05:15:38;2.77;;;2.17;;
16063;SDS011;8136;53.172;8.256;2023-06-14T05:18:05;3.97;;;2.30;;
16063;SDS011;8136;53.172;8.256;2023-06-14T05:20:34;4.10;;;2.13;;
16063;SDS011;8136;53.172;8.256;2023-06-14T05:23:03;3.60;;;2.50;;
16063;SDS011;8136;53.172;8.256;2023-06-14T05:25:30;3.83;;;2.33;;
16063;SDS011;8136;53.172;8.256;2023-06-14T05:27:57;3.07;;;2.50;;
16063;SDS011;8136;53.172;8.256;2023-06-14T05:30:23;3.57;;;2.10;;
16063;SDS011;8136;53.172;8.256;2023-06-14T05:32:51;2.53;;;2.20;;
16063;SDS011;8136;53.172;8.256;2023-06-14T05:35:20;3.07;;;2.20;;
16063;SDS011;8136;53.172;8.256;2023-06-14T05:37:48;2.93;;;2.40;;
16063;SDS011;8136;53.172;8.256;2023-06-14T05:40:16;2.60;;;2.37;;
16063;SDS011;8136;53.172;8.256;2023-06-14T05:42:43;4.93;;;2.47;;
16063;SDS011;8136;53.172;8.256;2023-06-14T05:45:10;5.30;;;2.60;;
16063;SDS011;8136;53.172;8.256;2023-06-14T05:47:36;2.97;;;1.80;;
16063;SDS011;8136;53.172;8.256;2023-06-14T05:50:06;4.27;;;2.57;;
16063;SDS011;8136;53.172;8.256;2023-06-14T05:52:33;3.10;;;1.93;;
16063;SDS011;8136;53.172;8.256;2023-06-14T05:55:02;4.37;;;2.50;;
16063;SDS011;8136;53.172;8.256;2023-06-14T05:57:30;5.80;;;2.43;;
16063;SDS011;8136;53.172;8.256;2023-06-14T05:59:57;4.53;;;2.27;;
16063;SDS011;8136;53.172;8.256;2023-06-14T06:02:23;3.60;;;2.20;;
16063;SDS011;8136;53.172;8.256;2023-06-14T06:04:50;4.37;;;2.80;;
16063;SDS011;8136;53.172;8.256;2023-06-14T06:07:17;5.67;;;2.80;;
16063;SDS011;8136;53.172;8.256;2023-06-14T06:09:44;2.97;;;2.13;;
16063;SDS011;8136;53.172;8.256;2023-06-14T06:12:10;3.80;;;2.50;;
16063;SDS011;8136;53.172;8.256;2023-06-14T06:14:38;4.47;;;2.70;;
16063;SDS011;8136;53.172;8.256;2023-06-14T06:17:05;3.47;;;2.17;;
16063;SDS011;8136;53.172;8.256;2023-06-14T06:19:32;3.70;;;2.20;;
16063;SDS011;8136;53.172;8.256;2023-06-14T06:21:59;3.53;;;2.47;;
16063;SDS011;8136;53.172;8.256;2023-06-14T06:24:26;2.23;;;1.90;;
16063;SDS011;8136;53.172;8.256;2023-06-14T06:26:52;2.17;;;1.73;;
16063;SDS011;8136;53.172;8.256;2023-06-14T06:29:19;4.10;;;2.20;;
16063;SDS011;8136;53.172;8.256;2023-06-14T06:31:48;1.97;;;1.70;;
16063;SDS011;8136;53.172;8.256;2023-06-14T06:34:14;3.57;;;2.13;;
16063;SDS011;8136;53.172;8.256;2023-06-14T06:36:41;2.80;;;1.90;;
16063;SDS011;8136;53.172;8.256;2023-06-14T06:39:08;3.50;;;2.13;;
16063;SDS011;8136;53.172;8.256;2023-06-14T06:41:35;4.03;;;1.67;;
16063;SDS011;8136;53.172;8.256;2023-06-14T06:44:04;2.30;;;1.97;;
16063;SDS011;8136;53.172;8.256;2023-06-14T06:46:31;6.43;;;2.30;;
16063;SDS011;8136;53.172;8.256;2023-06-14T06:48:59;2.63;;;1.63;;
16063;SDS011;8136;53.172;8.256;2023-06-14T06:51:26;3.30;;;1.73;;
16063;SDS011;8136;53.172;8.256;2023-06-14T06:53:53;5.47;;;2.03;;
16063;SDS011;8136;53.172;8.256;2023-06-14T06:56:20;2.47;;;1.70;;
16063;SDS011;8136;53.172;8.256;2023-06-14T06:58:48;2.90;;;1.93;;
16063;SDS011;8136;53.172;8.256;2023-06-14T07:01:14;5.27;;;2.00;;
16063;SDS011;8136;53.172;8.256;2023-06-14T07:03:41;4.77;;;1.97;;
16063;SDS011;8136;53.172;8.256;2023-06-14T07:06:09;3.27;;;2.10;;
16063;SDS011;8136;53.172;8.256;2023-06-14T07:08:36;5.07;;;2.17;;
16063;SDS011;8136;53.172;8.256;2023-06-14T07:11:03;1.83;;;1.70;;
16063;SDS011;8136;53.172;8.256;2023-06-14T07:13:30;2.97;;;2.07;;
16063;SDS011;8136;53.172;8.256;2023-06-14T07:15:58;3.47;;;1.50;;
16063;SDS011;8136;53.172;8.256;2023-06-14T07:18:26;2.70;;;1.73;;
16063;SDS011;8136;53.172;8.256;2023-06-14T07:20:52;2.10;;;1.60;;
16063;SDS011;8136;53.172;8.256;2023-06-14T07:23:22;3.53;;;1.80;;
16063;SDS011;8136;53.172;8.256;2023-06-14T07:25:49;4.03;;;1.77;;
16063;SDS011;8136;53.172;8.256;2023-06-14T07:28:16;6.60;;;1.77;;
16063;SDS011;8136;53.172;8.256;2023-06-14T07:30:43;2.33;;;1.43;;
16063;SDS011;8136;53.172;8.256;2023-06-14T07:33:10;2.60;;;1.37;;
16063;SDS011;8136;53.172;8.256;2023-06-14T07:35:37;3.23;;;1.73;;
16063;SDS011;8136;53.172;8.256;2023-06-14T07:38:04;5.40;;;1.87;;
16063;SDS011;8136;53.172;8.256;2023-06-14T07:40:32;3.23;;;1.63;;
16063;SDS011;8136;53.172;8.256;2023-06-14T07:42:58;2.70;;;1.83;;
16063;SDS011;8136;53.172;8.256;2023-06-14T07:45:26;2.13;;;1.57;;
16063;SDS011;8136;53.172;8.256;2023-06-14T07:47:53;2.77;;;1.50;;
16063;SDS011;8136;53.172;8.256;2023-06-14T07:50:20;2.10;;;1.43;;
16063;SDS011;8136;53.172;8.256;2023-06-14T07:52:47;4.37;;;1.70;;
16063;SDS011;8136;53.172;8.256;2023-06-14T07:55:14;1.90;;;1.50;;
16063;SDS011;8136;53.172;8.256;2023-06-14T07:57:42;1.60;;;1.40;;
16063;SDS011;8136;53.172;8.256;2023-06-14T08:00:10;1.83;;;1.20;;
16063;SDS011;8136;53.172;8.256;2023-06-14T08:02:40;1.60;;;1.27;;
16063;SDS011;8136;53.172;8.256;2023-06-14T08:05:08;2.93;;;1.30;;
16063;SDS011;8136;53.172;8.256;2023-06-14T08:07:36;1.93;;;1.47;;
16063;SDS011;8136;53.172;8.256;2023-06-14T08:10:03;2.50;;;1.63;;
16063;SDS011;8136;53.172;8.256;2023-06-14T08:12:31;1.93;;;1.20;;
16063;SDS011;8136;53.172;8.256;2023-06-14T08:14:59;1.40;;;1.20;;
16063;SDS011;8136;53.172;8.256;2023-06-14T08:17:26;4.67;;;1.60;;
16063;SDS011;8136;53.172;8.256;2023-06-14T08:19:53;1.93;;;1.40;;
16063;SDS011;8136;53.172;8.256;2023-06-14T08:22:22;2.30;;;1.30;;
16063;SDS011;8136;53.172;8.256;2023-06-14T08:24:51;3.67;;;1.40;;
16063;SDS011;8136;53.172;8.256;2023-06-14T08:27:19;1.83;;;1.10;;
16063;SDS011;8136;53.172;8.256;2023-06-14T08:29:45;2.33;;;1.10;;
16063;SDS011;8136;53.172;8.256;2023-06-14T08:32:13;1.27;;;1.00;;
16063;SDS011;8136;53.172;8.256;2023-06-14T08:34:40;2.20;;;1.00;;
16063;SDS011;8136;53.172;8.256;2023-06-14T08:37:07;2.20;;;1.43;;
16063;SDS011;8136;53.172;8.256;2023-06-14T08:39:34;1.77;;;1.30;;
16063;SDS011;8136;53.172;8.256;2023-06-14T08:42:01;3.10;;;1.33;;
16063;SDS011;8136;53.172;8.256;2023-06-14T08:44:28;1.47;;;1.07;;
16063;SDS011;8136;53.172;8.256;2023-06-14T08:46:55;1.10;;;1.00;;
16063;SDS011;8136;53.172;8.256;2023-06-14T08:49:23;3.00;;;1.20;;
16063;SDS011;8136;53.172;8.256;2023-06-14T08:51:53;2.17;;;1.30;;
16063;SDS011;8136;53.172;8.256;2023-06-14T08:54:24;2.27;;;1.13;;
16063;SDS011;8136;53.172;8.256;2023-06-14T08:56:52;1.20;;;0.90;;
16063;SDS011;8136;53.172;8.256;2023-06-14T08:59:22;1.50;;;1.10;;
16063;SDS011;8136;53.172;8.256;2023-06-14T09:01:50;1.83;;;1.10;;
16063;SDS011;8136;53.172;8.256;2023-06-14T09:04:19;2.67;;;1.27;;
16063;SDS011;8136;53.172;8.256;2023-06-14T09:06:48;1.73;;;1.07;;
16063;SDS011;8136;53.172;8.256;2023-06-14T09:09:17;1.00;;;0.90;;
16063;SDS011;8136;53.172;8.256;2023-06-14T09:11:45;1.17;;;0.83;;
16063;SDS011;8136;53.172;8.256;2023-06-14T09:14:12;0.97;;;0.80;;
16063;SDS011;8136;53.172;8.256;2023-06-14T09:16:39;2.77;;;1.07;;
16063;SDS011;8136;53.172;8.256;2023-06-14T09:19:06;1.23;;;0.97;;
16063;SDS011;8136;53.172;8.256;2023-06-14T09:21:33;1.53;;;1.00;;
16063;SDS011;8136;53.172;8.256;2023-06-14T09:24:02;2.50;;;1.10;;
16063;SDS011;8136;53.172;8.256;2023-06-14T09:26:30;1.70;;;1.10;;
16063;SDS011;8136;53.172;8.256;2023-06-14T09:28:57;2.20;;;1.20;;
16063;SDS011;8136;53.172;8.256;2023-06-14T09:31:25;2.30;;;1.30;;
16063;SDS011;8136;53.172;8.256;2023-06-14T09:33:56;1.73;;;1.03;;
16063;SDS011;8136;53.172;8.256;2023-06-14T09:36:24;1.67;;;1.10;;
16063;SDS011;8136;53.172;8.256;2023-06-14T09:38:52;3.40;;;0.90;;
16063;SDS011;8136;53.172;8.256;2023-06-14T09:41:21;2.50;;;1.00;;
16063;SDS011;8136;53.172;8.256;2023-06-14T09:43:57;1.60;;;1.10;;
16063;SDS011;8136;53.172;8.256;2023-06-14T09:46:26;1.27;;;1.00;;
16063;SDS011;8136;53.172;8.256;2023-06-14T09:48:53;1.37;;;1.10;;
16063;SDS011;8136;53.172;8.256;2023-06-14T09:51:20;2.70;;;1.07;;
16063;SDS011;8136;53.172;8.256;2023-06-14T09:53:49;1.43;;;0.90;;
16063;SDS011;8136;53.172;8.256;2023-06-14T09:56:17;1.63;;;1.20;;
16063;SDS011;8136;53.172;8.256;2023-06-14T09:58:53;2.80;;;1.13;;
16063;SDS011;8136;53.172;8.256;2023-06-14T10:01:21;1.57;;;1.10;;
16063;SDS011;8136;53.172;8.256;2023-06-14T10:03:50;2.93;;;1.17;;
16063;SDS011;8136;53.172;8.256;2023-06-14T10:06:19;1.37;;;1.00;;
16063;SDS011;8136;53.172;8.256;2023-06-14T10:08:49;1.93;;;1.07;;
16063;SDS011;8136;53.172;8.256;2023-06-14T10:11:18;1.87;;;1.23;;
16063;SDS011;8136;53.172;8.256;2023-06-14T10:13:47;1.63;;;1.03;;
16063;SDS011;8136;53.172;8.256;2023-06-14T10:16:16;0.83;;;0.83;;
16063;SDS011;8136;53.172;8.256;2023-06-14T10:18:48;2.60;;;1.20;;
16063;SDS011;8136;53.172;8.256;2023-06-14T10:21:21;2.10;;;1.23;;
16063;SDS011;8136;53.172;8.256;2023-06-14T10:23:52;2.80;;;0.90;;
16063;SDS011;8136;53.172;8.256;2023-06-14T10:26:19;2.63;;;1.40;;
16063;SDS011;8136;53.172;8.256;2023-06-14T10:28:59;1.60;;;1.40;;
16063;SDS011;8136;53.172;8.256;2023-06-14T10:34:20;1.00;;;0.90;;
16063;SDS011;8136;53.172;8.256;2023-06-14T10:36:59;1.20;;;1.10;;
16063;SDS011;8136;53.172;8.256;2023-06-14T10:39:28;3.07;;;1.00;;
16063;SDS011;8136;53.172;8.256;2023-06-14T10:41:56;1.37;;;0.77;;
16063;SDS011;8136;53.172;8.256;2023-06-14T10:44:32;2.47;;;1.10;;
16063;SDS011;8136;53.172;8.256;2023-06-14T10:47:00;2.40;;;1.10;;
16063;SDS011;8136;53.172;8.256;2023-06-14T10:49:37;1.30;;;1.20;;
16063;SDS011;8136;53.172;8.256;2023-06-14T10:52:07;1.77;;;1.13;;
16063;SDS011;8136;53.172;8.256;2023-06-14T10:54:42;1.57;;;1.30;;
16063;SDS011;8136;53.172;8.256;2023-06-14T10:57:29;1.53;;;1.23;;
16063;SDS011;8136;53.172;8.256;2023-06-14T10:59:58;1.87;;;1.17;;
16063;SDS011;8136;53.172;8.256;2023-06-14T11:02:45;1.47;;;1.20;;
16063;SDS011;8136;53.172;8.256;2023-06-14T11:05:42;3.10;;;1.20;;
16063;SDS011;8136;53.172;8.256;2023-06-14T11:11:32;2.33;;;1.23;;
16063;SDS011;8136;53.172;8.256;2023-06-14T11:14:00;1.40;;;1.20;;
16063;SDS011;8136;53.172;8.256;2023-06-14T11:16:28;1.40;;;1.30;;
16063;SDS011;8136;53.172;8.256;2023-06-14T11:18:58;1.30;;;1.20;;
16063;SDS011;8136;53.172;8.256;2023-06-14T11:21:28;1.47;;;1.20;;
16063;SDS011;8136;53.172;8.256;2023-06-14T11:23:56;2.00;;;1.27;;
16063;SDS011;8136;53.172;8.256;2023-06-14T11:26:26;2.40;;;1.27;;
16063;SDS011;8136;53.172;8.256;2023-06-14T11:28:56;2.20;;;1.40;;
16063;SDS011;8136;53.172;8.256;2023-06-14T11:31:24;2.10;;;1.20;;
16063;SDS011;8136;53.172;8.256;2023-06-14T11:33:54;1.40;;;1.23;;
16063;SDS011;8136;53.172;8.256;2023-06-14T11:36:21;1.50;;;1.20;;
16063;SDS011;8136;53.172;8.256;2023-06-14T11:38:48;2.50;;;1.30;;
16063;SDS011;8136;53.172;8.256;2023-06-14T11:41:15;1.77;;;1.30;;
16063;SDS011;8136;53.172;8.256;2023-06-14T11:43:42;2.80;;;1.47;;
16063;SDS011;8136;53.172;8.256;2023-06-14T11:46:12;5.30;;;1.53;;
16063;SDS011;8136;53.172;8.256;2023-06-14T11:48:41;1.20;;;1.10;;
16063;SDS011;8136;53.172;8.256;2023-06-14T11:51:09;4.00;;;1.63;;
16063;SDS011;8136;53.172;8.256;2023-06-14T11:53:36;1.70;;;1.30;;
16063;SDS011;8136;53.172;8.256;2023-06-14T11:56:04;1.90;;;1.33;;
16063;SDS011;8136;53.172;8.256;2023-06-14T11:58:31;2.13;;;1.53;;
16063;SDS011;8136;53.172;8.256;2023-06-14T12:00:58;2.00;;;1.30;;
16063;SDS011;8136;53.172;8.256;2023-06-14T12:03:25;2.13;;;1.13;;
16063;SDS011;8136;53.172;8.256;2023-06-14T12:06:01;2.40;;;1.40;;
16063;SDS011;8136;53.172;8.256;2023-06-14T12:08:33;2.73;;;1.60;;
16063;SDS011;8136;53.172;8.256;2023-06-14T12:11:04;2.60;;;1.30;;
16063;SDS011;8136;53.172;8.256;2023-06-14T12:13:33;2.03;;;1.40;;
16063;SDS011;8136;53.172;8.256;2023-06-14T12:16:01;2.77;;;1.47;;
16063;SDS011;8136;53.172;8.256;2023-06-14T12:18:31;2.47;;;1.47;;
16063;SDS011;8136;53.172;8.256;2023-06-14T12:21:00;1.70;;;1.17;;
16063;SDS011;8136;53.172;8.256;2023-06-14T12:23:39;2.03;;;1.23;;
16063;SDS011;8136;53.172;8.256;2023-06-14T12:26:08;2.07;;;1.37;;
16063;SDS011;8136;53.172;8.256;2023-06-14T12:28:35;1.70;;;1.33;;
16063;SDS011;8136;53.172;8.256;2023-06-14T12:31:02;2.67;;;1.60;;
16063;SDS011;8136;53.172;8.256;2023-06-14T12:33:29;1.97;;;1.57;;
16063;SDS011;8136;53.172;8.256;2023-06-14T12:35:56;5.40;;;1.27;;
16063;SDS011;8136;53.172;8.256;2023-06-14T12:38:23;2.43;;;1.13;;
16063;SDS011;8136;53.172;8.256;2023-06-14T12:40:52;2.50;;;1.40;;
16063;SDS011;8136;53.172;8.256;2023-06-14T12:43:18;2.83;;;1.33;;
16063;SDS011;8136;53.172;8.256;2023-06-14T12:45:45;2.43;;;1.50;;
16063;SDS011;8136;53.172;8.256;2023-06-14T12:48:12;1.80;;;1.30;;
16063;SDS011;8136;53.172;8.256;2023-06-14T12:50:39;1.47;;;1.27;;
16063;SDS011;8136;53.172;8.256;2023-06-14T12:53:05;2.00;;;1.40;;
16063;SDS011;8136;53.172;8.256;2023-06-14T12:55:32;2.80;;;1.50;;
16063;SDS011;8136;53.172;8.256;2023-06-14T12:58:00;3.50;;;1.70;;
16063;SDS011;8136;53.172;8.256;2023-06-14T13:00:27;1.33;;;1.20;;
16063;SDS011;8136;53.172;8.256;2023-06-14T13:02:55;3.50;;;1.80;;
16063;SDS011;8136;53.172;8.256;2023-06-14T13:05:22;3.17;;;1.47;;
16063;SDS011;8136;53.172;8.256;2023-06-14T13:07:49;4.13;;;1.77;;
16063;SDS011;8136;53.172;8.256;2023-06-14T13:10:16;1.50;;;1.17;;
16063;SDS011;8136;53.172;8.256;2023-06-14T13:12:43;3.50;;;1.37;;
16063;SDS011;8136;53.172;8.256;2023-06-14T13:15:11;5.23;;;1.43;;
16063;SDS011;8136;53.172;8.256;2023-06-14T13:17:38;2.33;;;1.37;;
16063;SDS011;8136;53.172;8.256;2023-06-14T13:20:06;2.20;;;1.40;;
16063;SDS011;8136;53.172;8.256;2023-06-14T13:22:34;1.70;;;1.17;;
16063;SDS011;8136;53.172;8.256;2023-06-14T13:25:02;4.23;;;1.60;;
16063;SDS011;8136;53.172;8.256;2023-06-14T13:27:29;1.93;;;1.23;;
16063;SDS011;8136;53.172;8.256;2023-06-14T13:29:56;1.33;;;1.23;;
16063;SDS011;8136;53.172;8.256;2023-06-14T13:32:24;3.50;;;1.67;;
16063;SDS011;8136;53.172;8.256;2023-06-14T13:34:51;2.13;;;1.40;;
16063;SDS011;8136;53.172;8.256;2023-06-14T13:37:18;3.03;;;1.50;;
16063;SDS011;8136;53.172;8.256;2023-06-14T13:39:44;2.37;;;1.60;;
16063;SDS011;8136;53.172;8.256;2023-06-14T13:42:11;3.80;;;1.33;;
16063;SDS011;8136;53.172;8.256;2023-06-14T13:44:38;2.13;;;1.40;;
16063;SDS011;8136;53.172;8.256;2023-06-14T13:47:05;2.23;;;1.50;;
16063;SDS011;8136;53.172;8.256;2023-06-14T13:49:33;2.23;;;1.50;;
16063;SDS011;8136;53.172;8.256;2023-06-14T13:52:01;1.87;;;1.40;;
16063;SDS011;8136;53.172;8.256;2023-06-14T13:54:27;3.10;;;1.40;;
16063;SDS011;8136;53.172;8.256;2023-06-14T13:56:54;8.30;;;1.50;;
16063;SDS011;8136;53.172;8.256;2023-06-14T13:59:21;2.37;;;1.53;;
16063;SDS011;8136;53.172;8.256;2023-06-14T14:01:48;4.43;;;1.90;;
16063;SDS011;8136;53.172;8.256;2023-06-14T14:04:15;2.93;;;1.47;;
16063;SDS011;8136;53.172;8.256;2023-06-14T14:06:43;2.83;;;1.27;;
16063;SDS011;8136;53.172;8.256;2023-06-14T14:09:10;1.40;;;1.30;;
16063;SDS011;8136;53.172;8.256;2023-06-14T14:11:37;2.43;;;1.60;;
16063;SDS011;8136;53.172;8.256;2023-06-14T14:14:06;5.40;;;1.63;;
16063;SDS011;8136;53.172;8.256;2023-06-14T14:16:33;2.50;;;1.60;;
16063;SDS011;8136;53.172;8.256;2023-06-14T14:19:00;3.07;;;1.30;;
16063;SDS011;8136;53.172;8.256;2023-06-14T14:21:27;1.93;;;1.40;;
16063;SDS011;8136;53.172;8.256;2023-06-14T14:23:55;2.33;;;1.20;;
16063;SDS011;8136;53.172;8.256;2023-06-14T14:26:22;1.50;;;1.27;;
16063;SDS011;8136;53.172;8.256;2023-06-14T14:28:49;4.43;;;1.40;;
16063;SDS011;8136;53.172;8.256;2023-06-14T14:31:16;4.37;;;1.40;;
16063;SDS011;8136;53.172;8.256;2023-06-14T14:33:43;2.83;;;1.63;;
16063;SDS011;8136;53.172;8.256;2023-06-14T14:36:10;2.07;;;1.53;;
16063;SDS011;8136;53.172;8.256;2023-06-14T14:38:38;2.53;;;1.80;;
16063;SDS011;8136;53.172;8.256;2023-06-14T14:41:06;1.50;;;1.40;;
16063;SDS011;8136;53.172;8.256;2023-06-14T14:43:33;2.63;;;1.43;;
16063;SDS011;8136;53.172;8.256;2023-06-14T14:46:00;2.30;;;1.37;;
16063;SDS011;8136;53.172;8.256;2023-06-14T14:48:26;1.80;;;1.30;;
16063;SDS011;8136;53.172;8.256;2023-06-14T14:50:53;2.20;;;1.40;;
16063;SDS011;8136;53.172;8.256;2023-06-14T14:53:20;2.40;;;1.37;;
16063;SDS011;8136;53.172;8.256;2023-06-14T14:55:47;3.13;;;1.63;;
16063;SDS011;8136;53.172;8.256;2023-06-14T14:58:15;2.80;;;1.53;;
16063;SDS011;8136;53.172;8.256;2023-06-14T15:00:43;2.37;;;1.50;;
16063;SDS011;8136;53.172;8.256;2023-06-14T15:03:10;2.23;;;1.70;;
16063;SDS011;8136;53.172;8.256;2023-06-14T15:05:37;3.27;;;1.70;;
16063;SDS011;8136;53.172;8.256;2023-06-14T15:08:04;2.13;;;1.30;;
16063;SDS011;8136;53.172;8.256;2023-06-14T15:10:35;3.27;;;1.47;;
16063;SDS011;8136;53.172;8.256;2023-06-14T15:13:03;2.13;;;1.50;;
16063;SDS011;8136;53.172;8.256;2023-06-14T15:15:31;1.10;;;1.00;;
16063;SDS011;8136;53.172;8.256;2023-06-14T15:17:58;1.90;;;1.40;;